Time;durP1;ratioP1;P1;durP2;ratioP2;P2;SDS_P1;SDS_P2;PMS_P1;PMS_P2;Temp;Humidity;BMP_temperature;BMP_pressure;BME280_temperature;BME280_humidity;BME280_pressure;Samples;Min_cycle;Max_cycle;Signal;HPM_P1;HPM_P2
2022/11/22 06:57:13;;;;;;;3.05;1.00;;;;;;;;;;10523177;28;20432;-82
2022/11/22 07:02:14;;;;;;;3.00;0.98;;;;;;;;;;10533679;28;20020;-82
2022/11/22 07:07:15;;;;;;;7.28;2.15;;;;;;;;;;10531205;28;20056;-82
2022/11/22 07:12:17;;;;;;;3.72;1.15;;;;;;;;;;10513248;28;20029;-82
2022/11/22 07:17:18;;;;;;;4.72;1.50;;;;;;;;;;10512248;28;20100;-82
2022/11/22 07:22:19;;;;;;;3.78;1.30;;;;;;;;;;10509779;28;20029;-83
2022/11/22 07:27:20;;;;;;;3.45;1.40;;;;;;;;;;10521227;28;20021;-82
2022/11/22 07:32:21;;;;;;;4.00;1.60;;;;;;;;;;10522673;28;20036;-82
2022/11/22 07:37:22;;;;;;;;;;;;;;;;;;10507806;28;20063;-82
2022/11/22 07:42:23;;;;;;;1.52;0.82;;;;;;;;;;10504585;28;19905;-82
2022/11/22 07:47:24;;;;;;;6.55;2.17;;;;;;;;;;10504398;28;20056;-82
2022/11/22 07:52:25;;;;;;;;;;;;;;;;;;10504701;28;20394;-82
2022/11/22 07:57:26;;;;;;;9.38;3.05;;;;;;;;;;10505863;28;19915;-82
2022/11/22 08:02:27;;;;;;;4.25;1.40;;;;;;;;;;10504434;28;20028;-81
2022/11/22 08:07:28;;;;;;;6.35;2.13;;;;;;;;;;10477793;28;20051;-82
2022/11/22 08:12:29;;;;;;;8.80;2.20;;;;;;;;;;10472639;28;20478;-82
2022/11/22 08:17:30;;;;;;;;;;;;;;;;;;10473234;28;20029;-78
2022/11/22 08:22:31;;;;;;;5.95;1.90;;;;;;;;;;10466445;28;19920;-78
2022/11/22 08:27:32;;;;;;;7.53;1.90;;;;;;;;;;10467350;28;20155;-78
2022/11/22 08:32:33;;;;;;;;;;;;;;;;;;10465586;28;20120;-79
2022/11/22 08:37:34;;;;;;;5.80;1.90;;;;;;;;;;10468821;28;19905;-77
2022/11/22 08:42:35;;;;;;;;;;;;;;;;;;10469582;28;20036;-77
2022/11/22 08:47:36;;;;;;;5.60;2.08;;;;;;;;;;10473355;28;20280;-78
2022/11/22 08:52:37;;;;;;;6.35;2.60;;;;;;;;;;10470309;28;20560;-77
2022/11/22 08:57:38;;;;;;;7.93;2.90;;;;;;;;;;10471519;28;20064;-77
2022/11/22 09:02:39;;;;;;;8.25;2.30;;;;;;;;;;10472202;28;20052;-77
2022/11/22 09:07:40;;;;;;;;;;;;;;;;;;10467459;28;20032;-78
2022/11/22 09:12:44;;;;;;;6.00;2.08;;;;;;;;;;10465630;28;19905;-78
2022/11/22 09:17:45;;;;;;;5.43;1.63;;;;;;;;;;10465903;28;20112;-79
2022/11/22 09:22:46;;;;;;;8.32;2.13;;;;;;;;;;10472080;28;20391;-78
2022/11/22 09:27:47;;;;;;;5.32;1.50;;;;;;;;;;10468275;28;20052;-79
2022/11/22 09:32:48;;;;;;;8.15;1.63;;;;;;;;;;10468948;28;20196;-78
2022/11/22 09:37:49;;;;;;;7.15;2.45;;;;;;;;;;10466914;28;20093;-79
2022/11/22 09:42:53;;;;;;;5.53;1.90;;;;;;;;;;10467786;28;20025;-79
2022/11/22 09:48:04;;;;;;;6.25;1.55;;;;;;;;;;10469833;28;20104;-79
2022/11/22 09:53:11;;;;;;;5.23;1.70;;;;;;;;;;10467145;28;20055;-81
2022/11/22 09:58:15;;;;;;;6.38;1.40;;;;;;;;;;10467091;28;21106;-81
2022/11/22 10:03:29;;;;;;;6.65;1.67;;;;;;;;;;10466959;28;20097;-82
2022/11/22 10:08:40;;;;;;;6.38;1.50;;;;;;;;;;10470027;28;20025;-78
2022/11/22 10:13:51;;;;;;;6.55;1.42;;;;;;;;;;10474310;28;20039;-79
2022/11/22 10:19:04;;;;;;;4.68;2.22;;;;;;;;;;10473850;28;20044;-78
2022/11/22 10:24:06;;;;;;;6.82;1.65;;;;;;;;;;10466418;28;20017;-79
2022/11/22 10:29:16;;;;;;;5.85;1.50;;;;;;;;;;10464949;28;20047;-79
2022/11/22 10:34:30;;;;;;;3.77;1.37;;;;;;;;;;10465123;28;20032;-78
2022/11/22 10:39:44;;;;;;;6.20;1.88;;;;;;;;;;10438162;22;20049;-83
2022/11/22 10:45:02;;;;;;;5.85;1.23;;;;;;;;;;10313605;28;20098;-82
2022/11/22 10:50:05;;;;;;;6.05;1.73;;;;;;;;;;10306959;28;20057;-83
2022/11/22 10:55:17;;;;;;;6.22;2.25;;;;;;;;;;10308549;28;20131;-83
2022/11/22 11:00:39;;;;;;;3.90;1.20;;;;;;;;;;10313579;28;20457;-83
2022/11/22 11:05:47;;;;;;;5.75;1.27;;;;;;;;;;10309769;28;20117;-83
2022/11/22 11:11:07;;;;;;;5.60;1.13;;;;;;;;;;10310019;28;20031;-84
2022/11/22 11:16:10;;;;;;;2.80;1.50;;;;;;;;;;10333477;28;20048;-80
2022/11/22 11:21:15;;;;;;;4.13;1.25;;;;;;;;;;10341460;28;20027;-83
2022/11/22 11:26:21;;;;;;;5.38;1.92;;;;;;;;;;10331279;28;20038;-82
2022/11/22 11:31:27;;;;;;;3.92;1.30;;;;;;;;;;10313369;28;20491;-82
2022/11/22 11:36:29;;;;;;;5.68;1.95;;;;;;;;;;10312469;28;20027;-82
2022/11/22 11:41:31;;;;;;;3.38;1.00;;;;;;;;;;10316117;28;20039;-83
2022/11/22 11:46:41;;;;;;;4.32;1.42;;;;;;;;;;10325006;28;20084;-82
2022/11/22 11:51:56;;;;;;;4.18;1.20;;;;;;;;;;10320723;28;20130;-83
2022/11/22 11:57:02;;;;;;;3.45;0.88;;;;;;;;;;10318927;28;20038;-83
2022/11/22 12:02:12;;;;;;;3.33;1.15;;;;;;;;;;10319241;28;20023;-83
2022/11/22 12:07:18;;;;;;;4.10;1.10;;;;;;;;;;10324229;28;20046;-83
2022/11/22 12:12:30;;;;;;;3.22;1.08;;;;;;;;;;10319542;28;20054;-84
2022/11/22 12:17:33;;;;;;;3.92;1.33;;;;;;;;;;10325165;28;20096;-84
2022/11/22 12:22:51;;;;;;;3.13;1.20;;;;;;;;;;10323920;28;20035;-84
2022/11/22 12:27:52;;;;;;;3.35;1.30;;;;;;;;;;10320392;28;20481;-83
2022/11/22 12:33:00;;;;;;;3.80;0.75;;;;;;;;;;10324040;28;20066;-84
2022/11/22 12:38:05;;;;;;;3.67;1.00;;;;;;;;;;10320898;28;20062;-83
2022/11/22 12:43:11;;;;;;;2.88;1.00;;;;;;;;;;10323245;28;20034;-84
2022/11/22 12:48:17;;;;;;;3.55;1.17;;;;;;;;;;10326192;28;20027;-83
2022/11/22 12:53:22;;;;;;;4.38;1.20;;;;;;;;;;10324223;28;20023;-84
2022/11/22 12:58:26;;;;;;;3.78;1.52;;;;;;;;;;10321775;28;20074;-83
2022/11/22 13:03:31;;;;;;;6.07;2.90;;;;;;;;;;10321666;28;20035;-83
2022/11/22 13:08:42;;;;;;;3.13;0.80;;;;;;;;;;10321669;28;20095;-83
2022/11/22 13:13:45;;;;;;;2.50;1.05;;;;;;;;;;10320281;28;20201;-84
2022/11/22 13:18:56;;;;;;;2.80;1.00;;;;;;;;;;10317815;28;20046;-83
2022/11/22 13:24:03;;;;;;;4.13;1.58;;;;;;;;;;10318322;28;20035;-84
2022/11/22 13:29:10;;;;;;;2.20;0.98;;;;;;;;;;10318357;28;20023;-83
2022/11/22 13:34:23;;;;;;;1.17;0.77;;;;;;;;;;10319088;28;20128;-84
2022/11/22 13:39:25;;;;;;;2.72;0.80;;;;;;;;;;10319025;28;20137;-83
2022/11/22 13:44:26;;;;;;;;;;;;;;;;;;10318368;28;20477;-84
2022/11/22 13:49:44;;;;;;;3.67;1.20;;;;;;;;;;10338954;28;19905;-83
2022/11/22 13:55:00;;;;;;;1.88;0.82;;;;;;;;;;10339903;28;20031;-83
2022/11/22 14:00:13;;;;;;;2.70;0.60;;;;;;;;;;10334717;28;20035;-83
2022/11/22 14:05:24;;;;;;;2.20;0.75;;;;;;;;;;10336497;28;20061;-84
2022/11/22 14:10:27;;;;;;;3.50;1.23;;;;;;;;;;10332483;28;20027;-83
2022/11/22 14:15:45;;;;;;;4.30;1.30;;;;;;;;;;10329472;28;20372;-82
2022/11/22 14:20:46;;;;;;;1.95;0.90;;;;;;;;;;10328394;28;20059;-82
2022/11/22 14:26:11;;;;;;;1.55;0.70;;;;;;;;;;10325082;28;20035;-83
2022/11/22 14:31:31;;;;;;;3.15;0.88;;;;;;;;;;10321136;28;20031;-81
2022/11/22 14:36:33;;;;;;;2.22;0.88;;;;;;;;;;10333155;28;20037;-82
2022/11/22 14:41:37;;;;;;;2.03;0.77;;;;;;;;;;10333990;28;20046;-83
2022/11/22 14:47:01;;;;;;;3.55;1.00;;;;;;;;;;10324793;28;20031;-82
2022/11/22 14:52:04;;;;;;;2.17;0.68;;;;;;;;;;10327209;28;20027;-84
2022/11/22 14:57:06;;;;;;;4.57;1.30;;;;;;;;;;10328957;28;20011;-83
2022/11/22 15:02:26;;;;;;;2.55;1.08;;;;;;;;;;10324217;28;20031;-82
2022/11/22 15:07:38;;;;;;;2.70;0.90;;;;;;;;;;10325419;28;20042;-83
2022/11/22 15:12:49;;;;;;;2.17;0.90;;;;;;;;;;10328235;28;20034;-83
2022/11/22 15:17:51;;;;;;;1.60;0.73;;;;;;;;;;10331753;28;20035;-82
2022/11/22 15:22:52;;;;;;;2.22;0.80;;;;;;;;;;10321407;28;20042;-82
2022/11/22 15:27:55;;;;;;;2.83;0.80;;;;;;;;;;10318674;28;20031;-82
2022/11/22 15:33:00;;;;;;;3.53;1.00;;;;;;;;;;10329738;28;20103;-81
2022/11/22 15:38:01;;;;;;;2.08;1.00;;;;;;;;;;10326773;28;20465;-82
2022/11/22 15:43:03;;;;;;;5.10;2.10;;;;;;;;;;10333474;28;20027;-82
2022/11/22 15:48:06;;;;;;;1.85;1.05;;;;;;;;;;10333272;28;20065;-83
2022/11/22 15:53:21;;;;;;;2.53;1.10;;;;;;;;;;10330863;28;20027;-83
2022/11/22 15:58:22;;;;;;;1.90;1.17;;;;;;;;;;10341749;28;20022;-82
2022/11/22 16:03:47;;;;;;;1.92;1.00;;;;;;;;;;10344971;28;20042;-82
2022/11/22 16:08:49;;;;;;;3.65;0.98;;;;;;;;;;10331956;28;20061;-82
2022/11/22 16:13:50;;;;;;;1.80;0.90;;;;;;;;;;10330290;28;20031;-82
2022/11/22 16:18:52;;;;;;;;;;;;;;;;;;10324209;28;20027;-84
2022/11/22 16:24:14;;;;;;;2.88;1.10;;;;;;;;;;10325754;28;19917;-84
2022/11/22 16:29:25;;;;;;;3.22;1.15;;;;;;;;;;10322386;28;20059;-83
2022/11/22 16:34:26;;;;;;;2.08;1.10;;;;;;;;;;10325183;28;20030;-82
2022/11/22 16:39:27;;;;;;;1.73;0.90;;;;;;;;;;10314663;28;20507;-82
2022/11/22 16:44:28;;;;;;;2.22;1.13;;;;;;;;;;10320860;28;20035;-82
2022/11/22 16:49:31;;;;;;;3.67;1.55;;;;;;;;;;10317417;28;20462;-83
2022/11/22 16:54:42;;;;;;;2.72;1.70;;;;;;;;;;10325194;28;20034;-83
2022/11/22 16:59:43;;;;;;;2.03;1.05;;;;;;;;;;10325330;28;20038;-83
2022/11/22 17:04:44;;;;;;;;;;;;;;;;;;10324315;28;20029;-82
2022/11/22 17:09:45;;;;;;;3.75;0.80;;;;;;;;;;10326371;28;19906;-78
2022/11/22 17:14:47;;;;;;;1.65;0.75;;;;;;;;;;10332020;28;20037;-82
2022/11/22 17:19:59;;;;;;;1.88;1.00;;;;;;;;;;10332448;28;20047;-85
2022/11/22 17:25:00;;;;;;;3.20;1.10;;;;;;;;;;10318641;28;20568;-86
2022/11/22 17:30:22;;;;;;;3.03;1.20;;;;;;;;;;10326593;28;20029;-86
2022/11/22 17:41:08;;;;;;;2.40;1.10;;;;;;;;;;10322399;28;20038;-86
2022/11/22 17:46:10;;;;;;;2.83;1.60;;;;;;;;;;10322813;28;20055;-86
2022/11/22 17:51:17;;;;;;;3.78;1.95;;;;;;;;;;10322773;28;20057;-85
2022/11/22 17:56:28;;;;;;;1.75;1.10;;;;;;;;;;10329160;28;20496;-85
2022/11/22 18:01:59;;;;;;;2.00;1.17;;;;;;;;;;10314423;28;20087;-85
2022/11/22 18:07:39;;;;;;;2.22;1.38;;;;;;;;;;10310346;28;20035;-85
2022/11/22 18:13:31;;;;;;;2.53;1.23;;;;;;;;;;10244550;29;20028;-84
2022/11/22 18:18:33;;;;;;;2.42;1.60;;;;;;;;;;10304307;28;20027;-85
2022/11/22 18:23:35;;;;;;;4.90;2.20;;;;;;;;;;10322430;28;20053;-84
2022/11/22 18:28:39;;;;;;;2.17;1.10;;;;;;;;;;10317932;28;20031;-86
2022/11/22 18:33:41;;;;;;;3.00;1.38;;;;;;;;;;10315155;28;20054;-85
2022/11/22 18:38:42;;;;;;;3.30;1.88;;;;;;;;;;10313278;28;20041;-85
2022/11/22 18:43:46;;;;;;;4.93;2.80;;;;;;;;;;10313322;28;20027;-85
2022/11/22 18:48:48;;;;;;;5.38;1.85;;;;;;;;;;10312898;28;20450;-85
2022/11/22 18:53:49;;;;;;;3.58;1.80;;;;;;;;;;10308960;28;20097;-85
2022/11/22 18:58:50;;;;;;;2.33;1.50;;;;;;;;;;10307389;28;20378;-85
2022/11/22 19:03:52;;;;;;;2.75;1.80;;;;;;;;;;10303475;28;20041;-85
2022/11/22 19:08:53;;;;;;;2.75;1.60;;;;;;;;;;10309481;28;20027;-84
2022/11/22 19:13:54;;;;;;;;;;;;;;;;;;10323528;28;20050;-84
2022/11/22 19:18:55;;;;;;;3.17;1.90;;;;;;;;;;10305638;28;19906;-85
2022/11/22 19:23:57;;;;;;;2.45;1.65;;;;;;;;;;10310788;28;20041;-86
2022/11/22 19:29:01;;;;;;;4.10;1.77;;;;;;;;;;10308135;28;20034;-86
2022/11/22 19:34:02;;;;;;;2.92;1.50;;;;;;;;;;10304206;28;20058;-86
2022/11/22 19:39:04;;;;;;;2.30;1.13;;;;;;;;;;10304676;28;20039;-86
2022/11/22 19:44:05;;;;;;;2.40;1.48;;;;;;;;;;10308541;28;20065;-85
2022/11/22 19:49:06;;;;;;;;;;;;;;;;;;10314818;28;20030;-86
2022/11/22 19:54:07;;;;;;;2.85;1.30;;;;;;;;;;10308972;28;19906;-86
2022/11/22 19:59:14;;;;;;;2.60;1.27;;;;;;;;;;10305004;28;20156;-86
2022/11/22 20:04:18;;;;;;;2.45;1.50;;;;;;;;;;10315045;28;20074;-86
2022/11/22 20:09:19;;;;;;;2.20;1.40;;;;;;;;;;10318750;28;20027;-85
2022/11/22 20:14:20;;;;;;;;;;;;;;;;;;10317641;28;20026;-85
2022/11/22 20:19:21;;;;;;;3.53;1.30;;;;;;;;;;10314755;28;19912;-85
